Time;durP1;ratioP1;P1;durP2;ratioP2;P2;SDS_P1;SDS_P2;PMS_P1;PMS_P2;Temp;Humidity;BMP_temperature;BMP_pressure;BME280_temperature;BME280_humidity;BME280_pressure;Samples;Min_cycle;Max_cycle;Signal;HPM_P1;HPM_P2
2022/12/25 00:00:11;;;;;;;;;;;;;;;17.27;48.07;100766.03;5089735;28;1173;-56
2022/12/25 00:02:37;;;;;;;;;;;;;;;16.28;50.51;100765.50;5076062;28;1113;-57
2022/12/25 00:05:02;;;;;;;;;;;;;;;15.90;51.50;100782.13;5089300;28;1909;-59
2022/12/25 00:07:28;;;;;;;;;;;;;;;16.11;51.31;100791.25;5077075;28;1189;-55
2022/12/25 00:09:53;;;;;;;;;;;;;;;17.40;47.83;100786.66;5089631;28;896;-55
2022/12/25 00:12:21;;;;;;;;;;;;;;;16.36;50.45;100787.75;5075758;28;1109;-56
2022/12/25 00:14:46;;;;;;;;;;;;;;;15.93;51.71;100805.47;5090267;28;1348;-58
2022/12/25 00:17:12;;;;;;;;;;;;;;;15.73;52.13;100816.03;5089584;28;1067;-56
2022/12/25 00:19:37;;;;;;;;;;;;;;;15.53;52.50;100810.47;5100659;28;1027;-60
2022/12/25 00:22:03;;;;;;;;;;;;;;;15.50;52.75;100821.94;5099521;28;1051;-56
2022/12/25 00:24:28;;;;;;;;;;;;;;;17.12;48.49;100823.78;5100282;28;1893;-55
2022/12/25 00:26:53;;;;;;;;;;;;;;;16.52;49.83;100828.94;5100379;28;1082;-55
2022/12/25 00:29:19;;;;;;;;;;;;;;;15.92;51.69;100837.53;5087760;28;1145;-57
2022/12/25 00:31:44;;;;;;;;;;;;;;;15.66;52.29;100839.31;5098018;28;1238;-56
2022/12/25 00:34:10;;;;;;;;;;;;;;;15.88;52.00;100841.91;5098683;28;1162;-55
2022/12/25 00:36:35;;;;;;;;;;;;;;;17.36;48.01;100832.28;5100033;28;1301;-56
2022/12/25 00:39:01;;;;;;;;;;;;;;;16.49;49.99;100832.22;5099719;28;1217;-56
2022/12/25 00:44:12;;;;;;;;;;;;;;;15.69;52.34;100828.63;5086207;28;1022;-56
2022/12/25 00:46:37;;;;;;;;;;;;;;;15.52;52.73;100834.28;5085053;28;1937;-55
2022/12/25 00:49:03;;;;;;;;;;;;;;;17.10;48.68;100820.50;5079645;28;1050;-56
2022/12/25 00:51:28;;;;;;;;;;;;;;;16.41;50.19;100822.59;5086887;28;1039;-56
2022/12/25 00:53:54;;;;;;;;;;;;;;;15.91;51.79;100824.94;5099361;28;1105;-55
2022/12/25 00:56:19;;;;;;;;;;;;;;;15.93;51.69;100821.91;5087208;28;1023;-54
2022/12/25 00:58:45;;;;;;;;;;;;;;;17.26;48.06;100821.28;5093554;28;974;-56
2022/12/25 01:01:10;;;;;;;;;;;;;;;16.25;50.58;100819.00;5093061;28;1161;-56
2022/12/25 01:03:36;;;;;;;;;;;;;;;15.89;51.77;100838.91;5092909;28;1149;-56
2022/12/25 01:06:02;;;;;;;;;;;;;;;15.65;52.24;100840.38;5082259;28;1913;-56
2022/12/25 01:08:28;;;;;;;;;;;;;;;16.30;50.97;100842.88;5093073;28;1218;-56
2022/12/25 01:10:54;;;;;;;;;;;;;;;17.24;48.36;100826.25;5086952;28;1046;-55
2022/12/25 01:13:19;;;;;;;;;;;;;;;16.22;50.63;100834.06;5099674;28;1033;-55
2022/12/25 01:15:45;;;;;;;;;;;;;;;15.84;51.80;100832.56;5099981;28;1038;-56
2022/12/25 01:18:10;;;;;;;;;;;;;;;15.65;52.33;100837.66;5099462;28;1106;-56
2022/12/25 01:20:36;;;;;;;;;;;;;;;15.54;52.73;100842.25;5099241;28;1059;-56
2022/12/25 01:23:01;;;;;;;;;;;;;;;17.14;48.73;100837.22;5098656;28;1457;-56
2022/12/25 01:25:27;;;;;;;;;;;;;;;16.57;49.95;100837.19;5086345;28;1913;-56
2022/12/25 01:27:52;;;;;;;;;;;;;;;15.94;51.74;100831.81;5084267;28;1521;-56
2022/12/25 01:30:18;;;;;;;;;;;;;;;15.71;52.13;100839.31;5092513;28;1150;-56
2022/12/25 01:32:43;;;;;;;;;;;;;;;15.48;52.76;100826.88;5092288;28;1173;-56
2022/12/25 01:35:08;;;;;;;;;;;;;;;15.81;52.09;100824.84;5085445;28;1202;-56
2022/12/25 01:37:34;;;;;;;;;;;;;;;17.33;47.96;100827.31;5099049;28;1102;-57
2022/12/25 01:39:59;;;;;;;;;;;;;;;16.30;50.41;100831.91;5085726;28;1055;-56
2022/12/25 01:42:25;;;;;;;;;;;;;;;15.83;51.62;100837.22;5085636;28;1046;-56
2022/12/25 01:44:50;;;;;;;;;;;;;;;15.62;52.44;100827.22;5097908;28;1897;-57
2022/12/25 01:47:16;;;;;;;;;;;;;;;15.84;52.04;100841.63;5098683;28;1125;-56
2022/12/25 01:49:41;;;;;;;;;;;;;;;17.38;47.82;100840.25;5097003;28;995;-56
2022/12/25 01:52:11;;;;;;;;;;;;;;;16.58;49.56;100844.34;5098868;28;998;-56
2022/12/25 01:54:37;;;;;;;;;;;;;;;16.03;51.20;100839.25;5092278;28;1040;-56
2022/12/25 01:57:05;;;;;;;;;;;;;;;15.73;52.07;100846.19;5087359;28;1030;-56
2022/12/25 01:59:30;;;;;;;;;;;;;;;15.54;52.25;100845.81;5094077;28;1154;-56
2022/12/25 02:01:56;;;;;;;;;;;;;;;15.38;52.88;100850.34;5079243;28;999;-56
2022/12/25 02:04:37;;;;;;;;;;;;;;;16.46;50.50;100846.50;5098294;28;1905;-56
2022/12/25 02:07:10;;;;;;;;;;;;;;;17.31;47.85;100846.03;5082501;28;1157;-55
2022/12/25 02:09:35;;;;;;;;;;;;;;;16.19;50.49;100859.31;5087540;28;1190;-56
2022/12/25 02:12:01;;;;;;;;;;;;;;;15.82;51.69;100860.25;5093790;28;1015;-56
2022/12/25 02:14:26;;;;;;;;;;;;;;;15.59;52.53;100861.47;5096821;28;1023;-57
2022/12/25 02:16:55;;;;;;;;;;;;;;;15.79;51.93;100862.66;5084958;28;1141;-56
2022/12/25 02:19:31;;;;;;;;;;;;;;;17.25;48.09;100860.84;5086673;28;1118;-57
2022/12/25 02:22:00;;;;;;;;;;;;;;;16.15;50.67;100871.91;5089313;28;1094;-56
2022/12/25 02:24:25;;;;;;;;;;;;;;;15.79;51.81;100874.47;5076600;28;1909;-57
2022/12/25 02:26:54;;;;;;;;;;;;;;;15.59;52.18;100866.94;5091240;28;1143;-56
2022/12/25 02:29:22;;;;;;;;;;;;;;;17.06;48.69;100869.66;5091147;28;1170;-56
2022/12/25 02:31:49;;;;;;;;;;;;;;;16.65;49.50;100861.38;5096720;28;1175;-56
2022/12/25 02:34:16;;;;;;;;;;;;;;;16.00;51.24;100867.19;5096026;28;1024;-56
2022/12/25 02:36:45;;;;;;;;;;;;;;;15.71;51.89;100867.56;5077789;28;1035;-56
2022/12/25 02:41:57;;;;;;;;;;;;;;;16.77;49.47;100875.66;5083502;28;1167;-56
2022/12/25 03:11:49;;;;;;;;;;;;;;;16.04;51.29;100903.97;5096884;28;890;-56
2022/12/25 03:16:58;;;;;;;;;;;;;;;15.53;52.43;100906.38;5096698;28;1153;-56
2022/12/25 03:27:59;;;;;;;;;;;;;;;15.74;51.83;100910.09;5095582;28;1086;-56
2022/12/25 03:33:30;;;;;;;;;;;;;;;16.95;49.05;100897.41;5096499;28;1128;-56
2022/12/25 03:36:06;;;;;;;;;;;;;;;16.77;49.15;100907.78;5083379;28;999;-56
2022/12/25 04:36:53;;;;;;;;;;;;;;;15.67;52.17;101010.91;5073997;28;1062;-57
2022/12/25 04:39:18;;;;;;;;;;;;;;;17.24;48.13;101015.88;5073831;28;1094;-56
2022/12/25 04:41:44;;;;;;;;;;;;;;;16.49;49.90;101010.66;5070732;28;1143;-57
2022/12/25 04:44:09;;;;;;;;;;;;;;;16.02;51.01;101012.28;5082685;28;1260;-58
2022/12/25 04:46:34;;;;;;;;;;;;;;;15.71;51.68;101007.38;5095602;28;1980;-57
2022/12/25 04:49:00;;;;;;;;;;;;;;;15.53;52.08;101016.00;5096313;28;1204;-57
2022/12/25 04:51:25;;;;;;;;;;;;;;;16.26;50.58;101026.44;5082771;28;1118;-57
2022/12/25 04:53:51;;;;;;;;;;;;;;;17.45;47.46;101028.53;5095358;28;1070;-55
2022/12/25 04:56:16;;;;;;;;;;;;;;;16.34;50.29;101017.72;5095240;28;996;-56
2022/12/25 04:58:42;;;;;;;;;;;;;;;15.93;51.27;101024.84;5089605;28;1006;-60
2022/12/25 05:01:07;;;;;;;;;;;;;;;15.71;51.67;101029.31;5089677;28;1117;-63
2022/12/25 05:03:33;;;;;;;;;;;;;;;16.08;50.98;101039.50;5099854;28;1026;-62
2022/12/25 05:05:58;;;;;;;;;;;;;;;17.37;47.82;101045.56;5098534;28;1980;-63
2022/12/25 05:08:24;;;;;;;;;;;;;;;16.42;49.92;101049.31;5098805;28;1070;-62
2022/12/25 05:10:49;;;;;;;;;;;;;;;15.89;51.18;101052.81;5099403;28;910;-62
2022/12/25 05:13:15;;;;;;;;;;;;;;;15.71;51.91;101044.94;5096894;28;1507;-64
2022/12/25 05:15:41;;;;;;;;;;;;;;;16.79;49.25;101053.91;5098088;28;2148;-63
2022/12/25 05:18:06;;;;;;;;;;;;;;;17.03;48.63;101051.53;5094881;28;1055;-62
2022/12/25 05:20:31;;;;;;;;;;;;;;;16.16;50.81;101051.06;5094517;28;1023;-57
2022/12/25 05:22:57;;;;;;;;;;;;;;;15.85;51.62;101056.31;5094021;28;1135;-57
2022/12/25 05:25:22;;;;;;;;;;;;;;;15.64;51.92;101056.13;5099085;28;1975;-57
2022/12/25 05:27:48;;;;;;;;;;;;;;;17.01;48.74;101064.72;5085896;28;1095;-56
2022/12/25 05:30:13;;;;;;;;;;;;;;;16.81;49.16;101061.88;5094897;28;1086;-54
2022/12/25 05:32:39;;;;;;;;;;;;;;;16.11;50.87;101071.06;5098856;28;1467;-54
2022/12/25 05:35:05;;;;;;;;;;;;;;;15.81;51.52;101069.75;5085266;28;1161;-58
2022/12/25 05:37:30;;;;;;;;;;;;;;;16.66;49.65;101070.84;5098501;28;1041;-56
2022/12/25 05:39:56;;;;;;;;;;;;;;;17.28;47.92;101071.94;5079027;28;1161;-56
2022/12/25 05:42:21;;;;;;;;;;;;;;;16.35;50.09;101076.97;5091277;28;1166;-56
2022/12/25 05:44:47;;;;;;;;;;;;;;;15.99;51.02;101073.16;5084749;28;2072;-52
2022/12/25 05:47:12;;;;;;;;;;;;;;;15.72;51.90;101083.06;5090960;28;1149;-53
2022/12/25 05:49:37;;;;;;;;;;;;;;;15.63;51.92;101087.38;5098649;28;1011;-56
2022/12/25 05:52:03;;;;;;;;;;;;;;;17.24;48.22;101088.16;5084992;28;1107;-56
2022/12/25 05:54:28;;;;;;;;;;;;;;;16.74;49.03;101090.38;5086679;28;1085;-55
2022/12/25 05:56:54;;;;;;;;;;;;;;;16.08;50.73;101086.13;5096841;28;1190;-57
2022/12/25 05:59:19;;;;;;;;;;;;;;;15.82;51.57;101090.59;5086675;28;1284;-54
2022/12/25 06:01:45;;;;;;;;;;;;;;;16.80;49.35;101098.66;5083131;28;1015;-56
2022/12/25 06:04:10;;;;;;;;;;;;;;;16.83;48.86;101104.44;5098558;28;1045;-56
2022/12/25 06:06:36;;;;;;;;;;;;;;;16.12;50.86;101102.91;5097862;28;1910;-55
2022/12/25 06:09:01;;;;;;;;;;;;;;;15.88;51.30;101110.66;5098701;28;1103;-53
2022/12/25 06:11:27;;;;;;;;;;;;;;;15.65;51.91;101111.78;5097816;28;1043;-52
2022/12/25 06:13:52;;;;;;;;;;;;;;;16.70;49.50;101116.72;5095559;28;1823;-55
2022/12/25 06:16:18;;;;;;;;;;;;;;;17.14;48.16;101131.25;5095582;28;1131;-54
2022/12/25 06:18:45;;;;;;;;;;;;;;;16.23;50.40;101139.47;5098289;28;1059;-56
2022/12/25 06:21:11;;;;;;;;;;;;;;;15.88;51.49;101140.84;5093883;28;1150;-56
2022/12/25 06:23:36;;;;;;;;;;;;;;;15.69;51.79;101141.13;5077129;28;1070;-55
2022/12/25 06:26:12;;;;;;;;;;;;;;;17.04;48.57;101149.34;5077692;28;1906;-52
2022/12/25 06:28:37;;;;;;;;;;;;;;;16.80;48.75;101148.09;5089502;28;1014;-55
2022/12/25 06:31:06;;;;;;;;;;;;;;;16.79;49.24;101151.91;5097430;28;1058;-56
2022/12/25 06:33:32;;;;;;;;;;;;;;;18.34;45.46;101147.72;5097862;28;893;-56
2022/12/25 06:35:57;;;;;;;;;;;;;;;16.75;48.32;101152.44;5084553;28;1051;-56
2022/12/25 06:38:23;;;;;;;;;;;;;;;18.20;45.88;101158.44;5097453;28;1193;-54
2022/12/25 06:40:48;;;;;;;;;;;;;;;17.75;46.57;101169.09;5084410;28;1083;-53
2022/12/25 06:43:13;;;;;;;;;;;;;;;16.85;47.87;101161.84;5085007;28;1451;-54
2022/12/25 06:45:39;;;;;;;;;;;;;;;17.92;46.71;101163.38;5076831;28;1977;-54
2022/12/25 06:48:04;;;;;;;;;;;;;;;17.08;47.79;101172.47;5089362;28;1088;-54
2022/12/25 06:50:30;;;;;;;;;;;;;;;17.74;47.15;101168.28;5096692;28;1018;-54
2022/12/25 06:52:55;;;;;;;;;;;;;;;18.34;45.38;101176.09;5097927;28;786;-54
2022/12/25 06:55:21;;;;;;;;;;;;;;;17.05;47.89;101177.66;5083748;28;991;-53
2022/12/25 06:57:46;;;;;;;;;;;;;;;18.83;44.55;101182.91;5084881;28;1106;-51
2022/12/25 07:00:12;;;;;;;;;;;;;;;17.84;46.35;101180.38;5085137;28;1055;-53
2022/12/25 07:02:37;;;;;;;;;;;;;;;17.07;47.20;101186.47;5085486;28;1106;-53
2022/12/25 07:05:03;;;;;;;;;;;;;;;18.22;45.78;101186.53;5105861;28;1922;-53
2022/12/25 07:07:28;;;;;;;;;;;;;;;17.07;47.85;101195.53;5088957;28;1003;-55
2022/12/25 07:09:54;;;;;;;;;;;;;;;18.12;46.72;101195.63;5078373;28;1037;-59
2022/12/25 07:12:20;;;;;;;;;;;;;;;17.79;46.79;101201.31;5076438;28;1280;-60
2022/12/25 07:14:48;;;;;;;;;;;;;;;17.13;47.55;101206.56;5090962;28;2021;-56
2022/12/25 07:17:17;;;;;;;;;;;;;;;18.32;46.13;101210.50;5097001;28;1054;-54
2022/12/25 07:19:43;;;;;;;;;;;;;;;17.09;47.83;101209.81;5096336;28;1094;-58
2022/12/25 07:22:08;;;;;;;;;;;;;;;17.54;47.78;101207.53;5084857;28;1011;-56
2022/12/25 07:24:34;;;;;;;;;;;;;;;17.87;46.73;101193.63;5090253;28;1905;-55
2022/12/25 07:26:59;;;;;;;;;;;;;;;17.13;48.16;101207.38;5096561;28;1053;-55
2022/12/25 07:29:24;;;;;;;;;;;;;;;19.09;44.24;101199.41;5096111;28;998;-56
2022/12/25 07:31:50;;;;;;;;;;;;;;;17.69;47.04;101206.75;5096797;28;1165;-57
2022/12/25 07:34:16;;;;;;;;;;;;;;;17.34;47.68;101202.78;5077701;28;1114;-59
2022/12/25 07:36:41;;;;;;;;;;;;;;;18.23;46.09;101208.28;5088447;28;1067;-60
2022/12/25 07:39:08;;;;;;;;;;;;;;;17.81;47.27;101217.53;5095846;28;1226;-53
2022/12/25 07:41:34;;;;;;;;;;;;;;;19.54;43.16;101222.38;5095949;28;1182;-56
2022/12/25 07:44:12;;;;;;;;;;;;;;;18.06;46.21;101215.94;5092138;28;1972;-52
2022/12/25 07:46:37;;;;;;;;;;;;;;;17.42;46.98;101221.53;5095920;28;1910;-52
2022/12/25 07:49:03;;;;;;;;;;;;;;;18.37;46.23;101225.09;5087721;28;1217;-60
2022/12/25 07:51:29;;;;;;;;;;;;;;;17.35;47.47;101220.94;5085996;28;1114;-61
2022/12/25 07:53:54;;;;;;;;;;;;;;;16.96;47.50;101215.78;5093133;28;1412;-57
2022/12/25 07:56:20;;;;;;;;;;;;;;;18.21;46.41;101223.41;5096678;28;1237;-61
2022/12/25 07:58:45;;;;;;;;;;;;;;;17.22;47.77;101213.16;5095562;28;1004;-60
2022/12/25 08:01:23;;;;;;;;;;;;;;;18.74;45.57;101223.13;5090615;28;984;-60
2022/12/25 08:03:49;;;;;;;;;;;;;;;17.93;46.72;101231.88;5095561;28;1083;-59
2022/12/25 08:06:15;;;;;;;;;;;;;;;17.38;47.42;101230.59;5096507;28;1905;-58
2022/12/25 08:08:41;;;;;;;;;;;;;;;18.53;45.70;101238.84;5095916;28;1026;-59
2022/12/25 08:11:07;;;;;;;;;;;;;;;17.34;47.75;101230.28;5084425;28;1086;-58
2022/12/25 08:13:32;;;;;;;;;;;;;;;16.89;47.68;101238.00;5088927;28;868;-58
2022/12/25 08:15:58;;;;;;;;;;;;;;;18.32;46.23;101233.34;5093557;28;2175;-58
2022/12/25 08:18:24;;;;;;;;;;;;;;;17.22;47.76;101235.16;5096269;28;1249;-58
2022/12/25 08:20:49;;;;;;;;;;;;;;;19.06;44.84;101242.13;5095583;28;1039;-58
2022/12/25 08:23:14;;;;;;;;;;;;;;;18.18;46.24;101238.53;5095802;28;1062;-59
2022/12/25 08:25:40;;;;;;;;;;;;;;;17.41;47.10;101241.03;5094890;28;1976;-59
2022/12/25 08:28:06;;;;;;;;;;;;;;;17.57;47.54;101251.00;5090204;28;1094;-58
2022/12/25 08:30:31;;;;;;;;;;;;;;;17.72;47.30;101263.97;5095440;28;1300;-58
2022/12/25 08:32:56;;;;;;;;;;;;;;;17.35;48.14;101266.81;5096212;28;1461;-60
2022/12/25 08:35:22;;;;;;;;;;;;;;;19.29;44.24;101267.41;5095989;28;1003;-62
2022/12/25 08:37:47;;;;;;;;;;;;;;;17.60;47.38;101260.66;5083617;28;847;-60
2022/12/25 08:40:13;;;;;;;;;;;;;;;17.29;47.07;101265.97;5082075;28;1100;-58
2022/12/25 08:42:38;;;;;;;;;;;;;;;17.04;46.78;101263.91;5099504;28;1046;-60
2022/12/25 08:45:04;;;;;;;;;;;;;;;17.69;47.39;101258.19;5094809;28;2201;-60
2022/12/25 08:47:29;;;;;;;;;;;;;;;17.03;47.87;101257.59;5099910;28;1021;-58
2022/12/25 08:49:55;;;;;;;;;;;;;;;18.80;45.49;101261.44;5098977;28;1022;-61
2022/12/25 08:52:20;;;;;;;;;;;;;;;17.88;47.20;101256.63;5099758;28;995;-60
2022/12/25 08:54:46;;;;;;;;;;;;;;;17.28;47.60;101259.66;5099365;28;1046;-60
2022/12/25 08:57:11;;;;;;;;;;;;;;;18.77;45.33;101261.16;5099976;28;998;-59
2022/12/25 08:59:36;;;;;;;;;;;;;;;17.52;47.56;101252.91;5079334;28;1110;-61
2022/12/25 09:02:02;;;;;;;;;;;;;;;17.20;47.06;101245.59;5079384;28;868;-56
2022/12/25 09:04:27;;;;;;;;;;;;;;;17.47;47.47;101244.63;5085404;28;1026;-59
2022/12/25 09:06:53;;;;;;;;;;;;;;;17.84;47.38;101243.66;5098942;28;1980;-60
2022/12/25 09:09:18;;;;;;;;;;;;;;;17.07;47.79;101244.97;5098994;28;1137;-60
2022/12/25 09:11:44;;;;;;;;;;;;;;;18.59;46.21;101251.50;5086358;28;1137;-57
2022/12/25 09:14:09;;;;;;;;;;;;;;;17.51;47.85;101245.75;5094025;28;1874;-58
2022/12/25 09:16:35;;;;;;;;;;;;;;;17.13;47.31;101245.84;5092233;28;792;-61
2022/12/25 09:19:00;;;;;;;;;;;;;;;17.92;47.42;101234.91;5098924;28;1233;-59
2022/12/25 09:21:25;;;;;;;;;;;;;;;17.11;48.62;101253.53;5092637;28;1125;-61
2022/12/25 09:23:51;;;;;;;;;;;;;;;19.17;44.99;101247.59;5084837;28;1106;-66
2022/12/25 09:26:17;;;;;;;;;;;;;;;17.89;46.93;101247.28;5085213;28;1906;-61
2022/12/25 09:28:42;;;;;;;;;;;;;;;17.25;47.57;101240.97;5098660;28;1206;-60
2022/12/25 09:31:07;;;;;;;;;;;;;;;18.28;46.47;101243.22;5098247;28;1288;-62
2022/12/25 09:33:33;;;;;;;;;;;;;;;17.27;47.74;101247.00;5098188;28;1217;-61
2022/12/25 09:35:59;;;;;;;;;;;;;;;18.08;47.18;101244.84;5098180;28;1214;-62
2022/12/25 09:38:24;;;;;;;;;;;;;;;17.89;47.26;101249.19;5096462;28;1221;-61
2022/12/25 09:40:57;;;;;;;;;;;;;;;17.34;47.55;101241.28;5098873;28;1186;-57
2022/12/25 09:43:22;;;;;;;;;;;;;;;18.12;47.17;101234.97;5097463;28;1162;-56
2022/12/25 09:45:47;;;;;;;;;;;;;;;17.30;47.97;101240.16;5096947;28;2095;-56
2022/12/25 09:48:13;;;;;;;;;;;;;;;18.38;46.46;101243.22;5097256;28;1055;-56
2022/12/25 09:50:39;;;;;;;;;;;;;;;18.36;46.41;101241.88;5096542;28;1068;-57
2022/12/25 09:53:06;;;;;;;;;;;;;;;17.38;47.73;101236.91;5085243;28;1015;-58
2022/12/25 09:55:32;;;;;;;;;;;;;;;17.33;48.29;101247.03;5077233;28;1056;-57
2022/12/25 09:57:58;;;;;;;;;;;;;;;17.83;47.42;101237.34;5090569;28;1112;-56
2022/12/25 10:00:24;;;;;;;;;;;;;;;17.23;47.74;101231.31;5080406;28;1115;-56
2022/12/25 10:02:53;;;;;;;;;;;;;;;17.54;48.08;101237.78;5091514;28;921;-57
2022/12/25 10:05:37;;;;;;;;;;;;;;;17.30;48.14;101225.59;5093313;28;1977;-58
2022/12/25 10:08:02;;;;;;;;;;;;;;;17.29;48.34;101224.75;5092151;28;1050;-56
2022/12/25 10:10:43;;;;;;;;;;;;;;;18.03;46.81;101222.00;5084254;28;1006;-58
2022/12/25 10:13:26;;;;;;;;;;;;;;;17.20;47.83;101229.13;5083738;28;1083;-58
2022/12/25 10:16:03;;;;;;;;;;;;;;;18.94;45.16;101233.31;5089474;28;2077;-58
2022/12/25 10:18:43;;;;;;;;;;;;;;;17.40;47.87;101223.72;5079864;28;1051;-57
2022/12/25 10:21:09;;;;;;;;;;;;;;;17.37;48.44;101226.19;5081542;28;1034;-57
2022/12/25 10:23:36;;;;;;;;;;;;;;;17.65;48.04;101229.59;5097923;28;1177;-61
2022/12/25 10:26:02;;;;;;;;;;;;;;;17.12;47.87;101224.94;5096668;28;1906;-59
2022/12/25 10:28:29;;;;;;;;;;;;;;;18.18;47.03;101232.22;5097290;28;1055;-61
2022/12/25 10:30:54;;;;;;;;;;;;;;;17.16;48.38;101239.81;5096611;28;1515;-61
2022/12/25 10:33:20;;;;;;;;;;;;;;;16.99;47.69;101241.91;5095589;28;1011;-61
2022/12/25 10:35:45;;;;;;;;;;;;;;;17.71;47.64;101243.09;5096620;28;1010;-58
2022/12/25 10:38:15;;;;;;;;;;;;;;;17.26;48.28;101239.03;5097131;28;1006;-58
2022/12/25 10:40:55;;;;;;;;;;;;;;;18.22;46.90;101236.09;5090074;28;1086;-58
2022/12/25 10:43:34;;;;;;;;;;;;;;;18.52;46.00;101237.19;5090061;28;1222;-58
2022/12/25 10:45:59;;;;;;;;;;;;;;;17.36;47.95;101235.50;5084498;28;2102;-58
2022/12/25 10:48:25;;;;;;;;;;;;;;;17.62;48.19;101241.94;5090771;28;1023;-54
2022/12/25 10:50:51;;;;;;;;;;;;;;;17.35;48.23;101242.94;5076879;28;853;-52
2022/12/25 10:53:17;;;;;;;;;;;;;;;17.06;48.53;101235.06;5090325;28;1014;-52
2022/12/25 10:55:52;;;;;;;;;;;;;;;18.55;45.90;101236.63;5089379;28;1063;-55
2022/12/25 10:58:20;;;;;;;;;;;;;;;17.38;47.91;101244.31;5096989;28;1131;-54
2022/12/25 11:00:53;;;;;;;;;;;;;;;17.69;47.87;101247.22;5083796;28;1090;-57
2022/12/25 11:03:19;;;;;;;;;;;;;;;17.48;47.89;101241.63;5095128;28;840;-54
2022/12/25 11:05:47;;;;;;;;;;;;;;;17.00;48.06;101252.63;5096543;28;1980;-55
2022/12/25 11:08:14;;;;;;;;;;;;;;;18.19;47.17;101244.88;5096172;28;983;-55
2022/12/25 11:10:43;;;;;;;;;;;;;;;17.53;47.95;101249.91;5095361;28;1224;-58
2022/12/25 11:13:19;;;;;;;;;;;;;;;17.09;47.96;101256.53;5096650;28;1094;-56
2022/12/25 11:15:45;;;;;;;;;;;;;;;18.01;46.96;101266.31;5094181;28;1836;-56
2022/12/25 11:18:18;;;;;;;;;;;;;;;17.17;48.19;101265.38;5094965;28;1376;-55
2022/12/25 11:20:49;;;;;;;;;;;;;;;17.72;47.96;101258.47;5096729;28;1209;-55
2022/12/25 11:23:19;;;;;;;;;;;;;;;17.38;48.16;101249.81;5096258;28;1268;-55
2022/12/25 11:25:53;;;;;;;;;;;;;;;16.98;47.85;101254.81;5095976;28;1965;-55
2022/12/25 11:28:18;;;;;;;;;;;;;;;18.15;47.02;101255.59;5096055;28;1239;-60
2022/12/25 11:30:43;;;;;;;;;;;;;;;17.27;48.27;101269.00;5096277;28;1246;-61
2022/12/25 11:33:10;;;;;;;;;;;;;;;16.93;48.22;101274.84;5095148;28;1234;-63
2022/12/25 11:36:04;;;;;;;;;;;;;;;18.07;46.92;101276.22;5095966;28;1107;-61
2022/12/25 11:38:30;;;;;;;;;;;;;;;17.06;48.18;101265.28;5020050;28;1318;-61
2022/12/25 11:40:57;;;;;;;;;;;;;;;18.01;47.62;101274.56;5096583;28;1257;-61
2022/12/25 11:43:24;;;;;;;;;;;;;;;17.27;48.43;101274.50;5094896;28;1140;-61
2022/12/25 11:45:58;;;;;;;;;;;;;;;17.52;48.20;101274.91;5092208;28;1909;-60
2022/12/25 11:48:34;;;;;;;;;;;;;;;18.07;47.10;101267.97;5094709;28;1159;-59
2022/12/25 11:51:00;;;;;;;;;;;;;;;17.26;47.94;101272.84;5094329;28;1289;-60
2022/12/25 11:53:29;;;;;;;;;;;;;;;16.98;47.53;101274.03;5096122;28;1147;-60
2022/12/25 11:55:56;;;;;;;;;;;;;;;17.70;48.01;101282.69;5095550;28;1186;-60
2022/12/25 11:58:40;;;;;;;;;;;;;;;17.09;48.27;101272.19;5095003;28;1222;-60
2022/12/25 12:01:12;;;;;;;;;;;;;;;18.78;45.90;101285.66;5093248;28;1004;-60
2022/12/25 12:03:39;;;;;;;;;;;;;;;17.48;47.87;101291.09;5101492;28;940;-61
2022/12/25 12:06:04;;;;;;;;;;;;;;;17.17;47.57;101292.88;5095513;28;1905;-60
2022/12/25 12:08:30;;;;;;;;;;;;;;;17.78;47.73;101306.09;5095939;28;1249;-60
2022/12/25 12:10:58;;;;;;;;;;;;;;;17.42;48.08;101298.50;5095789;28;1202;-60
2022/12/25 12:13:25;;;;;;;;;;;;;;;17.04;47.84;101303.22;5094162;28;1042;-60
2022/12/25 12:15:51;;;;;;;;;;;;;;;18.26;46.81;101306.81;5094601;28;1753;-59
2022/12/25 12:18:21;;;;;;;;;;;;;;;17.23;48.33;101300.03;5081238;28;1023;-59
2022/12/25 12:21:05;;;;;;;;;;;;;;;17.23;48.62;101303.59;5084633;28;1067;-59
2022/12/25 12:23:35;;;;;;;;;;;;;;;17.82;47.48;101312.69;5082195;28;1371;-60
2022/12/25 12:26:01;;;;;;;;;;;;;;;17.66;48.44;101306.31;5093363;28;1902;-60
2022/12/25 12:28:28;;;;;;;;;;;;;;;19.45;44.27;101306.81;5088759;28;1049;-59
2022/12/25 12:31:00;;;;;;;;;;;;;;;17.83;47.41;101313.56;5074909;28;1020;-59
2022/12/25 12:33:28;;;;;;;;;;;;;;;17.31;47.44;101310.53;5086473;28;1153;-59
2022/12/25 12:35:53;;;;;;;;;;;;;;;17.09;47.26;101310.66;5075641;28;1046;-59
2022/12/25 12:38:19;;;;;;;;;;;;;;;16.94;46.62;101316.84;5075982;28;1416;-57
2022/12/25 12:40:52;;;;;;;;;;;;;;;18.00;47.19;101310.63;5090073;28;1030;-59
2022/12/25 12:43:26;;;;;;;;;;;;;;;17.12;48.25;101312.06;5084619;28;1134;-58
2022/12/25 12:45:55;;;;;;;;;;;;;;;18.20;47.02;101318.09;5080410;28;2153;-59
2022/12/25 12:48:24;;;;;;;;;;;;;;;17.61;48.05;101318.13;5090673;28;1106;-60
2022/12/25 12:50:49;;;;;;;;;;;;;;;17.00;48.38;101324.06;5094176;28;1513;-60
2022/12/25 12:53:35;;;;;;;;;;;;;;;18.08;47.48;101321.91;5094282;28;1201;-59
2022/12/25 12:56:10;;;;;;;;;;;;;;;17.18;48.18;101330.22;5075358;28;1056;-59
2022/12/25 12:58:36;;;;;;;;;;;;;;;18.97;45.50;101332.81;5089203;28;1250;-59
2022/12/25 13:01:11;;;;;;;;;;;;;;;17.70;47.84;101343.19;5099795;28;1027;-59
2022/12/25 13:03:36;;;;;;;;;;;;;;;17.26;47.75;101333.31;5095375;28;1045;-59
2022/12/25 13:06:10;;;;;;;;;;;;;;;17.38;47.94;101332.28;5095600;28;1906;-60
2022/12/25 13:08:39;;;;;;;;;;;;;;;17.47;48.16;101338.94;5093934;28;1181;-60
2022/12/25 13:11:20;;;;;;;;;;;;;;;17.13;47.89;101346.69;5096344;28;1134;-59
2022/12/25 13:13:46;;;;;;;;;;;;;;;18.17;47.01;101349.72;5093367;28;1918;-59
2022/12/25 13:16:32;;;;;;;;;;;;;;;17.13;48.65;101352.19;5087661;28;917;-60
2022/12/25 13:18:57;;;;;;;;;;;;;;;18.95;45.54;101362.56;5084873;28;1792;-60
2022/12/25 13:21:23;;;;;;;;;;;;;;;18.12;47.05;101372.56;5089824;28;1030;-60
2022/12/25 13:23:54;;;;;;;;;;;;;;;17.43;47.74;101368.91;5091211;28;1098;-59
2022/12/25 13:26:19;;;;;;;;;;;;;;;17.17;47.36;101372.56;5094206;28;1905;-60
2022/12/25 13:28:45;;;;;;;;;;;;;;;17.73;47.73;101372.91;5099007;28;1073;-60
2022/12/25 13:31:16;;;;;;;;;;;;;;;17.31;48.34;101373.75;5085391;28;1106;-60
2022/12/25 13:33:49;;;;;;;;;;;;;;;17.05;47.80;101380.97;5085267;28;1011;-59
2022/12/25 13:36:15;;;;;;;;;;;;;;;18.00;47.58;101385.72;5078088;28;999;-59
2022/12/25 13:38:47;;;;;;;;;;;;;;;17.18;48.48;101382.44;5091530;28;1093;-60
2022/12/25 13:44:01;;;;;;;;;;;;;;;17.57;48.04;101398.66;5095114;28;2052;-59
2022/12/25 13:46:26;;;;;;;;;;;;;;;17.23;47.83;101393.47;5098458;28;1959;-59
2022/12/25 13:48:59;;;;;;;;;;;;;;;18.24;47.31;101399.03;5098510;28;1125;-59
2022/12/25 13:51:24;;;;;;;;;;;;;;;17.19;48.62;101397.84;5098283;28;1018;-59
2022/12/25 13:53:50;;;;;;;;;;;;;;;17.39;48.34;101392.50;5098495;28;1027;-59
2022/12/25 13:56:15;;;;;;;;;;;;;;;17.74;48.13;101399.34;5098418;28;1034;-59
2022/12/25 13:58:40;;;;;;;;;;;;;;;17.24;47.89;101404.22;5085003;28;1189;-59
2022/12/25 14:01:06;;;;;;;;;;;;;;;16.96;47.71;101407.25;5090598;28;1004;-59
2022/12/25 14:03:31;;;;;;;;;;;;;;;17.93;47.67;101407.97;5097543;28;1261;-60
2022/12/25 14:05:57;;;;;;;;;;;;;;;17.68;48.41;101416.06;5097603;28;1910;-60
2022/12/25 14:08:24;;;;;;;;;;;;;;;19.40;44.86;101423.47;5098485;28;1241;-61
2022/12/25 14:10:50;;;;;;;;;;;;;;;18.56;46.27;101422.81;5083429;28;1039;-62
2022/12/25 14:13:15;;;;;;;;;;;;;;;17.67;47.40;101425.41;5098585;28;1043;-60
2022/12/25 14:15:41;;;;;;;;;;;;;;;17.27;47.70;101435.84;5094707;28;2096;-59
2022/12/25 14:18:11;;;;;;;;;;;;;;;17.18;47.57;101430.00;5088653;28;1115;-61
2022/12/25 14:20:38;;;;;;;;;;;;;;;17.69;48.21;101440.53;5107182;28;1083;-61
2022/12/25 14:23:04;;;;;;;;;;;;;;;17.14;48.21;101452.75;5106921;28;1174;-57
2022/12/25 14:25:30;;;;;;;;;;;;;;;18.73;46.47;101447.38;5099022;28;1906;-60
2022/12/25 14:27:55;;;;;;;;;;;;;;;17.62;48.12;101445.44;5078814;27;1002;-59
2022/12/25 14:30:21;;;;;;;;;;;;;;;17.36;48.83;101458.16;5083758;28;1062;-56
2022/12/25 14:32:49;;;;;;;;;;;;;;;18.12;47.48;101455.13;5096148;28;1222;-57
2022/12/25 14:35:15;;;;;;;;;;;;;;;17.32;48.31;101455.13;5085354;28;1030;-56